createdAt,value
2022-10-04T00:01:06.910Z,101915.81
2022-10-04T00:03:47.610Z,101906.13
2022-10-04T00:06:24.622Z,101911.44
2022-10-04T00:09:16.287Z,101905.25
2022-10-04T00:11:48.633Z,101906.19
2022-10-04T00:14:39.035Z,101906.16
2022-10-04T00:17:17.156Z,101908.78
2022-10-04T00:19:49.159Z,101908.81
2022-10-04T00:22:56.702Z,101910.63
2022-10-04T00:25:35.310Z,101918.53
2022-10-04T00:28:40.617Z,101925.59
2022-10-04T00:31:26.215Z,101924.72
2022-10-04T00:34:14.505Z,101921.19
2022-10-04T00:36:59.900Z,101922.94
2022-10-04T00:39:39.629Z,101918.53
2022-10-04T00:42:24.928Z,101924.69
2022-10-04T00:45:08.709Z,101917.69
2022-10-04T00:48:01.307Z,101914.13
2022-10-04T00:50:59.853Z,101900.94
2022-10-04T00:53:54.025Z,101900.94
2022-10-04T00:56:29.948Z,101901.81
2022-10-04T00:59:03.465Z,101904.47
2022-10-04T01:01:32.389Z,101897.44
2022-10-04T01:04:03.681Z,101895.69
2022-10-04T01:06:32.572Z,101894.75
2022-10-04T01:09:05.852Z,101889.50
2022-10-04T01:11:42.965Z,101884.19
2022-10-04T01:14:13.682Z,101877.13
2022-10-04T01:16:42.071Z,101874.50
2022-10-04T01:19:27.303Z,101868.34
2022-10-04T01:22:15.324Z,101869.25
2022-10-04T01:24:46.219Z,101868.34
2022-10-04T01:27:41.893Z,101865.69
2022-10-04T01:30:21.158Z,101868.34
2022-10-04T01:32:54.691Z,101865.72
2022-10-04T01:35:22.692Z,101858.66
2022-10-04T01:37:52.972Z,101856.00
2022-10-04T01:40:22.554Z,101845.47
2022-10-04T01:42:55.162Z,101841.06
2022-10-04T01:45:48.265Z,101832.25
2022-10-04T01:48:22.091Z,101843.72
2022-10-04T01:51:05.140Z,101841.06
2022-10-04T01:53:38.097Z,101837.53
2022-10-04T01:56:29.815Z,101825.22
2022-10-04T01:59:04.087Z,101826.13
2022-10-04T02:01:57.434Z,101826.13
2022-10-04T02:04:29.785Z,101821.69
2022-10-04T02:06:59.914Z,101827.81
2022-10-04T02:09:32.378Z,101825.16
2022-10-04T02:12:00.975Z,101819.88
2022-10-04T02:14:33.415Z,101816.28
2022-10-04T02:17:03.781Z,101821.59
2022-10-04T02:19:40.480Z,101824.22
2022-10-04T02:22:11.361Z,101818.06
2022-10-04T02:24:45.842Z,101810.97
2022-10-04T02:27:14.575Z,101816.28
2022-10-04T02:29:42.433Z,101814.53
2022-10-04T02:32:29.384Z,101815.41
2022-10-04T02:35:00.528Z,101812.84
2022-10-04T02:37:31.692Z,101818.94
2022-10-04T02:40:08.693Z,101810.09
2022-10-04T02:42:44.733Z,101805.78
2022-10-04T02:45:25.470Z,101799.63
2022-10-04T02:48:07.841Z,101804.00
2022-10-04T02:50:40.325Z,101808.38
2022-10-04T02:53:32.839Z,101807.53
2022-10-04T02:56:03.417Z,101804.88
2022-10-04T02:58:33.827Z,101806.63
2022-10-04T03:01:02.331Z,101811.81
2022-10-04T03:03:39.693Z,101808.41
2022-10-04T03:06:15.645Z,101797.81
2022-10-04T03:09:16.539Z,101803.97
2022-10-04T03:11:45.098Z,101796.97
2022-10-04T03:14:25.788Z,101796.16
2022-10-04T03:17:03.588Z,101798.78
2022-10-04T03:19:38.632Z,101794.41
2022-10-04T03:22:15.908Z,101798.78
2022-10-04T03:24:50.424Z,101798.78
2022-10-04T03:27:25.639Z,101802.31
2022-10-04T03:29:59.191Z,101808.50
2022-10-04T03:32:41.314Z,101795.31
2022-10-04T03:35:29.680Z,101792.66
2022-10-04T03:38:05.637Z,101793.56
2022-10-04T03:40:38.906Z,101794.41
2022-10-04T03:43:07.114Z,101791.78
2022-10-04T03:45:38.049Z,101793.56
2022-10-04T03:48:09.022Z,101794.41
2022-10-04T03:50:47.333Z,101787.41
2022-10-04T03:53:19.808Z,101792.69
2022-10-04T03:55:59.872Z,101794.44
2022-10-04T03:58:31.271Z,101791.78
2022-10-04T04:01:12.351Z,101793.56
2022-10-04T04:04:01.825Z,101793.56
2022-10-04T04:06:43.779Z,101790.94
2022-10-04T04:09:27.151Z,101797.94
2022-10-04T04:11:58.203Z,101795.31
2022-10-04T04:14:29.314Z,101798.81
2022-10-04T04:17:30.525Z,101800.59
2022-10-04T04:20:07.647Z,101805.88
2022-10-04T04:22:40.344Z,101800.59
2022-10-04T04:25:14.938Z,101803.25
2022-10-04T04:27:44.167Z,101805.88
2022-10-04T04:30:19.427Z,101803.22
2022-10-04T04:32:51.704Z,101804.97
2022-10-04T04:35:32.567Z,101806.75
2022-10-04T04:38:04.490Z,101802.34
2022-10-04T04:40:32.024Z,101804.97
2022-10-04T04:43:02.038Z,101805.88
2022-10-04T04:45:32.162Z,101806.69
2022-10-04T04:48:03.763Z,101803.19
2022-10-04T04:50:37.494Z,101808.44
2022-10-04T04:53:07.759Z,101803.19
2022-10-04T04:56:03.498Z,101815.50
2022-10-04T04:58:45.582Z,101811.06
2022-10-04T05:01:26.204Z,101821.66
2022-10-04T05:04:04.184Z,101816.38
2022-10-04T05:06:33.074Z,101825.19
2022-10-04T05:09:00.647Z,101816.38
2022-10-04T05:11:34.952Z,101829.56
2022-10-04T05:14:16.419Z,101827.78
2022-10-04T05:16:58.857Z,101839.22
2022-10-04T05:19:36.348Z,101841.84
2022-10-04T05:22:26.499Z,101843.63
2022-10-04T05:25:10.442Z,101846.22
2022-10-04T05:27:43.176Z,101853.25
2022-10-04T05:30:23.203Z,101854.13
2022-10-04T05:33:07.583Z,101857.63
2022-10-04T05:36:07.703Z,101870.81
2022-10-04T05:39:08.288Z,101873.44
2022-10-04T05:42:28.468Z,101878.72
2022-10-04T05:45:04.797Z,101875.22
2022-10-04T05:47:34.839Z,101887.53
2022-10-04T05:50:04.010Z,101886.69
2022-10-04T05:52:37.405Z,101884.03
2022-10-04T05:55:27.351Z,101893.72
2022-10-04T06:01:30.032Z,101906.03
2022-10-04T06:04:25.702Z,101909.56
2022-10-04T06:07:55.231Z,101900.78
2022-10-04T06:11:02.132Z,101904.28
2022-10-04T06:17:34.571Z,101922.75
2022-10-04T06:20:27.900Z,101914.84
2022-10-04T06:23:23.891Z,101927.13
2022-10-04T06:26:10.418Z,101928.00
2022-10-04T06:28:55.695Z,101935.03
2022-10-04T06:31:57.131Z,101944.75
2022-10-04T06:35:00.339Z,101942.97
2022-10-04T06:37:40.478Z,101942.19
2022-10-04T06:40:50.055Z,101947.44
2022-10-04T06:43:45.039Z,101950.97
2022-10-04T06:46:27.856Z,101955.41
2022-10-04T06:49:40.598Z,101965.97
2022-10-04T06:52:17.327Z,101967.72
2022-10-04T06:54:57.107Z,101970.34
2022-10-04T06:57:41.976Z,101971.22
2022-10-04T07:00:34.261Z,101981.81
2022-10-04T07:03:15.233Z,101980.03
2022-10-04T07:06:30.386Z,101984.44
2022-10-04T07:09:05.820Z,101989.75
2022-10-04T07:11:58.968Z,101988.88
2022-10-04T07:14:39.264Z,101992.41
2022-10-04T07:17:19.837Z,101998.56
2022-10-04T07:19:59.305Z,101997.69
2022-10-04T07:22:51.996Z,101991.53
2022-10-04T07:25:33.389Z,102001.25
2022-10-04T07:28:37.610Z,102010.06
2022-10-04T07:31:28.703Z,102007.41
2022-10-04T07:34:31.185Z,102005.66
2022-10-04T07:37:19.639Z,102009.19
2022-10-04T07:40:41.397Z,102010.09
2022-10-04T07:43:28.337Z,102015.41
2022-10-04T07:46:20.396Z,102012.75
2022-10-04T07:48:58.317Z,102012.78
2022-10-04T07:51:57.991Z,102014.53
2022-10-04T07:54:47.365Z,102012.78
2022-10-04T07:57:45.690Z,102018.09
2022-10-04T08:00:27.162Z,102027.75
2022-10-04T08:03:25.533Z,102023.38
2022-10-04T08:06:13.241Z,102016.28
2022-10-04T08:09:17.705Z,102020.59
2022-10-04T08:11:50.118Z,102025.81
2022-10-04T08:14:41.041Z,102027.41
2022-10-04T08:17:15.411Z,102030.75
2022-10-04T08:20:40.235Z,102026.06
2022-10-04T08:23:29.394Z,102027.56
2022-10-04T08:26:35.422Z,102026.34
2022-10-04T08:30:01.899Z,102021.13
2022-10-04T08:33:10.219Z,102025.09
2022-10-04T08:35:58.359Z,102019.56
2022-10-04T08:38:57.746Z,102028.25
2022-10-04T08:41:51.798Z,102027.91
2022-10-04T08:44:34.508Z,102024.69
2022-10-04T08:47:32.349Z,102030.75
2022-10-04T08:50:05.951Z,102033.81
2022-10-04T08:53:12.568Z,102031.63
2022-10-04T08:56:19.450Z,102034.34
2022-10-04T08:59:07.429Z,102036.44
2022-10-04T09:02:01.998Z,102038.09
2022-10-04T09:05:12.476Z,102032.44
2022-10-04T09:08:24.498Z,102038.13
2022-10-04T09:11:23.679Z,102032.53
2022-10-04T09:14:08.641Z,102032.03
2022-10-04T09:16:53.237Z,102024.91
2022-10-04T09:19:51.398Z,102036.50
2022-10-04T09:22:30.000Z,102044.63
2022-10-04T09:25:14.671Z,102040.84
2022-10-04T09:28:02.341Z,102041.47
2022-10-04T09:31:10.177Z,102038.00
2022-10-04T09:34:02.243Z,102039.03
2022-10-04T09:36:49.767Z,102040.59
2022-10-04T09:40:04.624Z,102037.38
2022-10-04T09:42:41.705Z,102037.09
2022-10-04T09:45:21.828Z,102031.50
2022-10-04T09:48:27.730Z,102040.03
2022-10-04T09:51:32.761Z,102045.88
2022-10-04T09:54:34.349Z,102043.59
2022-10-04T09:57:48.696Z,102051.31
2022-10-04T10:00:33.474Z,102039.75
2022-10-04T10:03:22.649Z,102036.59
2022-10-04T10:05:59.432Z,102040.06
2022-10-04T10:08:28.455Z,102039.94
2022-10-04T10:11:40.599Z,102034.38
2022-10-04T10:14:30.536Z,102036.59
2022-10-04T10:17:22.979Z,102031.44
2022-10-04T10:20:07.904Z,102036.19
2022-10-04T10:23:01.609Z,102034.41
2022-10-04T10:25:54.604Z,102053.25
2022-10-04T10:32:32.844Z,102051.84
2022-10-04T10:35:55.755Z,102045.41
2022-10-04T10:42:28.281Z,102040.72
2022-10-04T10:46:02.481Z,102031.91
2022-10-04T10:48:54.766Z,102032.84
2022-10-04T10:52:01.048Z,102029.28
2022-10-04T10:55:30.006Z,102027.59
2022-10-04T10:58:52.445Z,102020.47
2022-10-04T11:05:08.991Z,102028.16
2022-10-04T11:08:22.319Z,102025.81
2022-10-04T11:11:29.159Z,102023.19
2022-10-04T11:14:41.747Z,102026.88
2022-10-04T11:17:57.974Z,102025.56
2022-10-04T11:21:25.577Z,102018.75
2022-10-04T11:24:27.356Z,102020.22
2022-10-04T11:27:16.232Z,102018.25
2022-10-04T11:30:38.793Z,102021.41
2022-10-04T11:33:42.666Z,102017.28
2022-10-04T11:36:27.036Z,102019.06
2022-10-04T11:39:41.447Z,102015.09
2022-10-04T11:42:29.848Z,102015.53
2022-10-04T11:45:23.906Z,102018.34
2022-10-04T11:48:14.506Z,102018.13
2022-10-04T11:51:13.239Z,102019.34
2022-10-04T11:54:12.192Z,102010.50
2022-10-04T12:00:21.816Z,102000.66
2022-10-04T12:03:14.348Z,101997.75
2022-10-04T12:06:25.860Z,101995.63
2022-10-04T12:09:23.624Z,101999.81
2022-10-04T12:12:30.285Z,101990.09
2022-10-04T12:15:36.349Z,101986.72
2022-10-04T12:18:41.682Z,101984.44
2022-10-04T12:24:54.803Z,101969.03
2022-10-04T12:31:10.703Z,101968.50
2022-10-04T12:33:57.133Z,101960.66
2022-10-04T12:37:01.342Z,101960.66
2022-10-04T12:39:46.298Z,101964.06
2022-10-04T12:42:31.614Z,101959.84
2022-10-04T12:45:25.345Z,101956.03
2022-10-04T12:48:19.832Z,101952.06
2022-10-04T12:51:25.215Z,101951.41
2022-10-04T12:54:10.684Z,101943.19
2022-10-04T12:57:11.626Z,101931.72
2022-10-04T13:00:11.664Z,101940.63
2022-10-04T13:03:11.959Z,101931.28
2022-10-04T13:10:25.534Z,101930.91
2022-10-04T13:13:57.321Z,101925.88
2022-10-04T13:17:34.566Z,101918.22
2022-10-04T13:20:37.034Z,101906.03
2022-10-04T13:27:15.513Z,101911.34
2022-10-04T13:30:07.179Z,101911.00
2022-10-04T13:33:09.725Z,101907.69
2022-10-04T13:36:37.290Z,101913.66
2022-10-04T13:40:09.518Z,101906.91
2022-10-04T13:54:20.776Z,101903.94
2022-10-04T13:57:25.996Z,101905.59
2022-10-04T14:00:22.126Z,101906.00
2022-10-04T14:03:30.226Z,101909.00
2022-10-04T14:09:45.561Z,101910.19
2022-10-04T14:12:56.211Z,101916.72
2022-10-04T14:15:47.923Z,101916.75
2022-10-04T14:18:48.759Z,101909.28
2022-10-04T14:21:45.337Z,101911.47
2022-10-04T14:25:06.709Z,101911.38
2022-10-04T14:28:19.483Z,101919.97
2022-10-04T14:31:40.051Z,101922.88
2022-10-04T14:34:41.809Z,101931.53
2022-10-04T14:37:39.900Z,101923.16
2022-10-04T14:40:52.159Z,101931.75
2022-10-04T14:44:02.038Z,101933.41
2022-10-04T14:47:13.516Z,101941.06
2022-10-04T14:50:13.515Z,101933.19
2022-10-04T14:53:49.964Z,101944.25
2022-10-04T14:56:59.078Z,101954.03
2022-10-04T14:59:51.899Z,101950.69
2022-10-04T15:02:36.972Z,101961.34
2022-10-04T15:05:47.844Z,101956.88
2022-10-04T15:08:23.494Z,101961.91
2022-10-04T15:11:04.064Z,101962.41
2022-10-04T15:14:01.080Z,101964.34
2022-10-04T15:17:08.028Z,101965.16
2022-10-04T15:20:24.606Z,101962.25
2022-10-04T15:23:16.821Z,101964.47
2022-10-04T15:26:24.862Z,101974.00
2022-10-04T15:29:07.918Z,101962.91
2022-10-04T15:31:52.989Z,101964.25
2022-10-04T15:34:38.946Z,101967.41
2022-10-04T15:37:14.978Z,101967.06
2022-10-04T15:40:21.913Z,101974.13
2022-10-04T15:43:10.728Z,101963.59
2022-10-04T15:46:05.765Z,101973.25
2022-10-04T15:51:58.797Z,101979.56
2022-10-04T15:55:26.665Z,101979.09
2022-10-04T15:58:10.750Z,101983.06
2022-10-04T16:03:33.259Z,101988.09
2022-10-04T16:06:23.987Z,101985.09
2022-10-04T16:09:28.235Z,101989.16
2022-10-04T16:12:44.482Z,101996.88
2022-10-04T16:15:50.313Z,101995.09
2022-10-04T16:18:52.876Z,101989.44
2022-10-04T16:21:55.409Z,101991.09
2022-10-04T16:25:04.758Z,101992.19
2022-10-04T16:28:06.107Z,102000.72
2022-10-04T16:30:48.465Z,101996.31
2022-10-04T16:33:45.155Z,102002.56
2022-10-04T16:36:35.054Z,101998.69
2022-10-04T16:42:25.889Z,102019.63
2022-10-04T16:45:05.103Z,102026.72
2022-10-04T16:47:51.140Z,102020.91
2022-10-04T16:51:04.127Z,102024.22
2022-10-04T16:54:05.199Z,102030.25
2022-10-04T16:56:54.744Z,102022.91
2022-10-04T16:59:58.296Z,102020.94
2022-10-04T17:02:55.542Z,102033.31
2022-10-04T17:05:49.348Z,102030.66
2022-10-04T17:08:53.947Z,102030.84
2022-10-04T17:11:59.537Z,102039.19
2022-10-04T17:15:20.900Z,102042.06
2022-10-04T17:18:10.595Z,102043.59
2022-10-04T17:20:51.964Z,102048.88
2022-10-04T17:24:21.621Z,102046.34
2022-10-04T17:27:09.953Z,102055.16
2022-10-04T17:29:58.785Z,102051.44
2022-10-04T17:32:49.970Z,102055.19
2022-10-04T17:35:38.556Z,102060.59
2022-10-04T17:38:30.172Z,102055.97
2022-10-04T17:41:19.084Z,102055.28
2022-10-04T17:43:56.357Z,102058.69
2022-10-04T17:46:40.393Z,102062.31
2022-10-04T17:50:06.816Z,102057.22
2022-10-04T17:53:26.786Z,102066.81
2022-10-04T17:56:15.353Z,102065.09
2022-10-04T18:02:23.822Z,102060.72
2022-10-04T18:05:15.055Z,102064.28
2022-10-04T18:08:18.812Z,102068.69
2022-10-04T18:11:11.949Z,102066.13
2022-10-04T18:14:26.408Z,102068.91
2022-10-04T18:17:13.874Z,102074.94
2022-10-04T18:20:02.440Z,102075.88
2022-10-04T18:23:07.883Z,102070.75
2022-10-04T18:25:59.244Z,102073.34
2022-10-04T18:28:40.933Z,102065.38
2022-10-04T18:31:44.741Z,102074.28
2022-10-04T18:34:38.408Z,102071.63
2022-10-04T18:37:45.216Z,102077.00
2022-10-04T18:40:21.098Z,102081.47
2022-10-04T18:43:22.261Z,102081.47
2022-10-04T18:46:53.379Z,102084.06
2022-10-04T20:50:36.022Z,102158.03
2022-10-04T20:58:12.997Z,102167.72
2022-10-04T21:06:41.758Z,102172.13
2022-10-04T21:09:26.055Z,102167.81
2022-10-04T21:16:50.748Z,102173.09
2022-10-04T21:20:10.257Z,102172.19
2022-10-04T21:32:03.770Z,102181.09
2022-10-04T21:36:15.930Z,102176.69
2022-10-04T21:51:26.522Z,102183.81
2022-10-04T21:57:07.559Z,102176.72
2022-10-04T21:59:34.847Z,102183.78
2022-10-04T22:02:02.311Z,102182.91
2022-10-04T22:04:32.206Z,102181.13
2022-10-04T22:07:02.753Z,102182.88
2022-10-04T22:09:34.233Z,102189.06
2022-10-04T22:12:01.719Z,102193.50
2022-10-04T22:14:29.187Z,102183.78
2022-10-04T22:16:57.240Z,102182.94
2022-10-04T22:19:24.689Z,102187.31
2022-10-04T22:21:52.014Z,102179.41
2022-10-04T22:24:21.243Z,102181.16
2022-10-04T22:26:49.020Z,102187.31
2022-10-04T22:29:18.585Z,102185.56
2022-10-04T22:31:52.983Z,102181.16
2022-10-04T22:34:23.981Z,102180.25
2022-10-04T22:36:53.281Z,102180.28
2022-10-04T22:39:24.033Z,102185.56
2022-10-04T22:41:58.716Z,102189.06
2022-10-04T22:44:30.313Z,102182.06
2022-10-04T22:47:00.581Z,102183.78
2022-10-04T22:49:43.548Z,102182.94
2022-10-04T22:52:31.694Z,102184.63
2022-10-04T22:55:02.743Z,102179.41
2022-10-04T22:57:31.090Z,102189.09
2022-10-04T22:59:58.587Z,102190.84
2022-10-04T23:02:30.323Z,102188.19
2022-10-04T23:05:18.565Z,102189.09
2022-10-04T23:07:47.877Z,102188.22
2022-10-04T23:10:19.191Z,102187.34
2022-10-04T23:12:49.269Z,102175.88
2022-10-04T23:15:20.047Z,102182.06
2022-10-04T23:17:54.659Z,102184.69
2022-10-04T23:20:25.563Z,102187.31
2022-10-04T23:22:55.247Z,102179.38
2022-10-04T23:25:30.155Z,102193.50
2022-10-04T23:28:02.356Z,102187.31
2022-10-04T23:30:29.901Z,102189.09
2022-10-04T23:33:00.729Z,102196.16
2022-10-04T23:35:33.347Z,102196.16
2022-10-04T23:38:07.448Z,102195.25
2022-10-04T23:40:34.866Z,102204.06
2022-10-04T23:43:05.982Z,102204.06
2022-10-04T23:45:38.244Z,102200.56
2022-10-04T23:48:13.364Z,102197.03
2022-10-04T23:50:41.406Z,102200.53
2022-10-04T23:53:24.049Z,102202.31
2022-10-04T23:55:51.596Z,102200.53
2022-10-04T23:58:32.449Z,102204.94
